createdAt,value
2023-02-12T00:01:29.303Z,11.90
2023-02-12T00:03:58.451Z,10.93
2023-02-12T00:06:28.213Z,11.03
2023-02-12T00:08:59.296Z,12.37
2023-02-12T00:11:29.408Z,14.77
2023-02-12T00:13:58.308Z,14.67
2023-02-12T00:16:28.868Z,15.27
2023-02-12T00:18:58.508Z,13.57
2023-02-12T00:21:27.377Z,13.80
2023-02-12T00:23:59.196Z,13.70
2023-02-12T00:26:29.205Z,14.73
2023-02-12T00:28:58.534Z,13.13
2023-02-12T00:31:29.542Z,14.00
2023-02-12T00:33:59.935Z,12.60
2023-02-12T00:36:29.929Z,13.13
2023-02-12T00:39:00.646Z,16.83
2023-02-12T00:41:29.846Z,13.50
2023-02-12T00:43:58.779Z,14.03
2023-02-12T00:46:29.446Z,15.73
2023-02-12T00:48:58.873Z,17.50
2023-02-12T00:51:27.905Z,19.47
2023-02-12T00:53:57.673Z,19.00
2023-02-12T00:56:28.044Z,18.67
2023-02-12T00:58:57.359Z,19.73
2023-02-12T01:01:27.974Z,21.23
2023-02-12T01:03:58.342Z,24.17
2023-02-12T01:06:28.933Z,20.03
2023-02-12T01:08:57.723Z,20.87
2023-02-12T01:11:28.157Z,22.03
2023-02-12T01:13:57.243Z,25.57
2023-02-12T01:16:26.252Z,19.33
2023-02-12T01:18:56.263Z,20.83
2023-02-12T01:21:26.743Z,25.97
2023-02-12T01:23:56.662Z,22.17
2023-02-12T01:26:28.590Z,25.97
2023-02-12T01:29:01.576Z,26.30
2023-02-12T01:31:32.160Z,23.23
2023-02-12T01:34:01.837Z,23.17
2023-02-12T01:36:31.034Z,21.60
2023-02-12T01:39:00.180Z,21.10
2023-02-12T01:41:30.454Z,27.37
2023-02-12T01:44:25.793Z,26.67
2023-02-12T01:46:57.512Z,21.60
2023-02-12T01:49:27.841Z,37.83
2023-02-12T01:52:00.385Z,20.10
2023-02-12T01:54:29.370Z,23.30
2023-02-12T01:56:57.774Z,33.03
2023-02-12T01:59:28.993Z,25.63
2023-02-12T02:01:57.327Z,21.17
2023-02-12T02:04:28.815Z,33.87
2023-02-12T02:06:58.719Z,38.53
2023-02-12T02:09:29.500Z,22.43
2023-02-12T02:12:15.545Z,28.60
2023-02-12T02:14:45.583Z,18.30
2023-02-12T02:17:33.073Z,16.23
2023-02-12T02:20:34.573Z,15.10
2023-02-12T02:23:29.542Z,15.83
2023-02-12T02:26:27.637Z,16.03
2023-02-12T02:29:01.425Z,20.30
2023-02-12T02:31:32.765Z,17.57
2023-02-12T02:34:03.399Z,11.77
2023-02-12T02:36:41.429Z,14.20
2023-02-12T02:39:23.999Z,21.03
2023-02-12T02:41:59.219Z,20.13
2023-02-12T02:44:28.475Z,19.07
2023-02-12T02:46:59.334Z,14.50
2023-02-12T02:49:29.760Z,16.80
2023-02-12T02:52:01.041Z,14.90
2023-02-12T02:54:32.272Z,15.07
2023-02-12T02:57:02.532Z,20.07
2023-02-12T02:59:34.260Z,16.93
2023-02-12T03:02:06.283Z,14.60
2023-02-12T03:04:35.770Z,15.13
2023-02-12T03:07:06.981Z,20.03
2023-02-12T03:09:38.314Z,19.23
2023-02-12T03:12:08.353Z,19.03
2023-02-12T03:14:39.456Z,11.77
2023-02-12T03:17:12.282Z,21.40
2023-02-12T03:19:42.833Z,12.60
2023-02-12T03:22:14.386Z,13.23
2023-02-12T03:24:44.603Z,17.57
2023-02-12T03:27:16.459Z,27.83
2023-02-12T03:29:45.393Z,19.70
2023-02-12T03:32:23.760Z,12.77
2023-02-12T03:34:53.682Z,19.60
2023-02-12T03:37:28.788Z,32.07
2023-02-12T03:39:58.940Z,28.30
2023-02-12T03:42:35.412Z,32.33
2023-02-12T03:45:05.858Z,36.03
2023-02-12T03:47:42.692Z,28.07
2023-02-12T03:50:12.930Z,32.57
2023-02-12T03:52:42.330Z,36.50
2023-02-12T03:55:11.639Z,40.07
2023-02-12T03:57:42.718Z,20.53
2023-02-12T04:00:13.701Z,15.73
2023-02-12T04:02:50.784Z,25.97
2023-02-12T04:05:21.325Z,23.40
2023-02-12T04:07:50.271Z,19.10
2023-02-12T04:10:19.559Z,26.73
2023-02-12T04:12:52.283Z,12.60
2023-02-12T04:15:36.745Z,22.50
2023-02-12T04:18:09.827Z,21.77
2023-02-12T04:20:44.470Z,28.93
2023-02-12T04:23:19.603Z,31.80
2023-02-12T04:25:55.151Z,19.43
2023-02-12T04:28:29.834Z,18.80
2023-02-12T04:31:01.776Z,27.20
2023-02-12T04:33:36.457Z,26.00
2023-02-12T04:36:08.423Z,26.93
2023-02-12T04:38:38.700Z,28.43
2023-02-12T04:41:07.804Z,27.73
2023-02-12T04:43:37.372Z,30.40
2023-02-12T04:46:07.112Z,34.27
2023-02-12T04:48:38.463Z,38.50
2023-02-12T04:51:07.354Z,24.60
2023-02-12T04:53:36.421Z,27.17
2023-02-12T04:56:06.010Z,20.47
2023-02-12T04:58:35.303Z,23.33
2023-02-12T05:01:04.540Z,34.97
2023-02-12T05:03:33.422Z,34.97
2023-02-12T05:06:06.124Z,30.63
2023-02-12T05:08:34.953Z,39.43
2023-02-12T05:11:08.361Z,31.50
2023-02-12T05:13:37.396Z,32.77
2023-02-12T05:16:06.896Z,37.50
2023-02-12T05:18:36.411Z,44.07
2023-02-12T05:21:08.082Z,39.70
2023-02-12T05:23:38.396Z,44.40
2023-02-12T05:26:08.885Z,45.73
2023-02-12T05:28:38.638Z,50.67
2023-02-12T05:31:10.209Z,35.73
2023-02-12T05:33:39.401Z,37.83
2023-02-12T05:36:11.658Z,24.43
2023-02-12T05:38:40.761Z,26.37
2023-02-12T05:41:10.342Z,45.97
2023-02-12T05:43:39.560Z,34.00
2023-02-12T05:46:08.370Z,41.10
2023-02-12T05:48:37.180Z,42.93
2023-02-12T05:51:06.405Z,41.87
2023-02-12T05:53:36.656Z,36.37
2023-02-12T05:56:13.556Z,46.17
2023-02-12T05:58:43.239Z,44.43
2023-02-12T06:01:13.739Z,44.47
2023-02-12T06:03:43.012Z,49.10
2023-02-12T06:06:12.999Z,38.70
2023-02-12T06:08:43.608Z,45.73
2023-02-12T06:11:14.727Z,41.03
2023-02-12T06:13:44.254Z,38.87
2023-02-12T06:16:19.250Z,37.93
2023-02-12T06:18:48.684Z,48.27
2023-02-12T06:21:17.785Z,42.00
2023-02-12T06:23:48.609Z,39.73
2023-02-12T06:26:18.041Z,39.87
2023-02-12T06:28:47.100Z,39.20
2023-02-12T06:31:22.684Z,37.10
2023-02-12T06:33:51.555Z,38.40
2023-02-12T06:36:21.568Z,42.87
2023-02-12T06:38:52.096Z,41.47
2023-02-12T06:41:20.991Z,35.83
2023-02-12T06:43:49.675Z,42.10
2023-02-12T06:46:18.955Z,43.43
2023-02-12T06:48:48.374Z,40.57
2023-02-12T06:52:18.702Z,33.67
2023-02-12T06:54:49.163Z,31.07
2023-02-12T06:57:17.798Z,25.83
2023-02-12T06:59:46.161Z,23.53
2023-02-12T07:02:14.782Z,35.73
2023-02-12T07:04:43.034Z,29.13
2023-02-12T07:07:11.348Z,27.73
2023-02-12T07:09:40.077Z,28.17
2023-02-12T07:12:09.913Z,17.33
2023-02-12T07:14:38.647Z,39.90
2023-02-12T07:17:08.889Z,39.50
2023-02-12T07:19:37.362Z,24.70
2023-02-12T07:22:05.604Z,20.00
2023-02-12T07:24:34.046Z,15.80
2023-02-12T07:27:02.373Z,26.03
2023-02-12T07:29:32.529Z,29.63
2023-02-12T07:32:00.921Z,17.20
2023-02-12T07:34:29.823Z,18.43
2023-02-12T07:36:58.227Z,24.30
2023-02-12T07:39:26.671Z,19.40
2023-02-12T07:41:54.960Z,31.47
2023-02-12T07:44:23.606Z,20.00
2023-02-12T07:46:53.704Z,17.63
2023-02-12T07:49:23.276Z,21.07
2023-02-12T07:51:51.768Z,18.93
2023-02-12T07:54:20.017Z,18.20
2023-02-12T07:56:48.711Z,16.27
2023-02-12T07:59:18.448Z,11.73
2023-02-12T08:01:48.067Z,16.73
2023-02-12T08:04:18.430Z,18.37
2023-02-12T08:06:47.536Z,15.77
2023-02-12T08:09:17.609Z,15.10
2023-02-12T08:11:46.351Z,11.40
2023-02-12T08:14:15.515Z,11.33
2023-02-12T08:16:44.287Z,10.30
2023-02-12T08:19:19.024Z,9.13
2023-02-12T08:21:52.502Z,8.87
2023-02-12T08:24:22.506Z,9.80
2023-02-12T08:26:51.026Z,9.37
2023-02-12T08:29:20.117Z,11.20
2023-02-12T08:31:49.269Z,8.23
2023-02-12T08:34:19.021Z,10.43
2023-02-12T08:36:47.452Z,12.90
2023-02-12T08:39:17.915Z,12.93
2023-02-12T08:41:46.342Z,13.23
2023-02-12T08:44:14.642Z,14.83
2023-02-12T08:46:46.175Z,13.83
2023-02-12T08:49:15.357Z,13.60
2023-02-12T08:51:44.826Z,9.53
2023-02-12T08:54:15.339Z,10.30
2023-02-12T08:56:45.854Z,11.70
2023-02-12T08:59:14.641Z,12.17
2023-02-12T09:01:42.994Z,11.53
2023-02-12T09:04:13.689Z,11.27
2023-02-12T09:06:42.020Z,12.40
2023-02-12T09:09:10.268Z,11.03
2023-02-12T09:11:38.606Z,25.57
2023-02-12T09:14:09.558Z,24.40
2023-02-12T09:16:38.068Z,29.00
2023-02-12T09:19:06.424Z,22.17
2023-02-12T09:21:35.009Z,19.40
2023-02-12T09:24:04.073Z,17.43
2023-02-12T09:26:32.452Z,14.87
2023-02-12T09:29:00.704Z,15.87
2023-02-12T09:31:31.478Z,23.17
2023-02-12T09:34:02.000Z,18.83
2023-02-12T09:36:30.690Z,24.63
2023-02-12T09:38:59.905Z,22.07
2023-02-12T09:42:03.239Z,14.73
2023-02-12T09:44:33.893Z,17.63
2023-02-12T09:47:05.513Z,17.90
2023-02-12T09:49:49.496Z,17.17
2023-02-12T09:52:18.920Z,14.57
2023-02-12T09:54:47.471Z,17.67
2023-02-12T09:57:18.875Z,21.27
2023-02-12T09:59:49.155Z,22.30
2023-02-12T10:02:20.125Z,25.50
2023-02-12T10:05:00.609Z,16.60
2023-02-12T10:07:52.207Z,19.87
2023-02-12T10:10:27.463Z,19.03
2023-02-12T10:12:57.720Z,24.57
2023-02-12T10:15:32.106Z,17.60
2023-02-12T10:18:16.144Z,16.40
2023-02-12T10:20:56.588Z,14.33
2023-02-12T10:23:39.636Z,13.77
2023-02-12T10:26:13.173Z,14.17
2023-02-12T10:28:42.685Z,15.97
2023-02-12T10:31:15.684Z,14.73
2023-02-12T10:33:46.920Z,15.97
2023-02-12T10:36:20.106Z,16.10
2023-02-12T10:38:50.647Z,16.10
2023-02-12T10:41:18.992Z,17.23
2023-02-12T10:44:16.361Z,19.73
2023-02-12T10:46:45.059Z,17.20
2023-02-12T10:49:16.375Z,21.63
2023-02-12T10:51:58.282Z,19.37
2023-02-12T10:54:33.621Z,19.50
2023-02-12T10:57:06.245Z,19.83
2023-02-12T10:59:35.854Z,18.33
2023-02-12T11:02:04.616Z,16.07
2023-02-12T11:04:34.774Z,16.97
2023-02-12T11:07:04.826Z,19.27
2023-02-12T11:09:36.373Z,17.53
2023-02-12T11:12:05.386Z,15.70
2023-02-12T11:14:33.743Z,19.33
2023-02-12T11:17:03.207Z,15.27
2023-02-12T11:19:35.263Z,16.27
2023-02-12T11:22:09.225Z,15.77
2023-02-12T11:24:38.385Z,15.97
2023-02-12T11:27:14.165Z,16.83
2023-02-12T11:29:42.567Z,16.30
2023-02-12T11:32:12.570Z,16.87
2023-02-12T11:34:42.577Z,17.07
2023-02-12T11:37:15.594Z,14.77
2023-02-12T11:39:43.864Z,14.97
2023-02-12T11:42:17.600Z,17.63
2023-02-12T11:44:49.820Z,15.57
2023-02-12T11:47:19.203Z,13.93
2023-02-12T11:49:53.422Z,14.83
2023-02-12T11:52:23.027Z,15.20
2023-02-12T11:54:52.336Z,13.03
2023-02-12T11:57:36.566Z,13.70
2023-02-12T12:00:05.978Z,12.13
2023-02-12T12:02:36.226Z,13.73
2023-02-12T12:05:09.976Z,13.03
2023-02-12T12:07:38.632Z,11.80
2023-02-12T12:10:08.969Z,10.63
2023-02-12T12:12:40.425Z,11.77
2023-02-12T12:15:28.788Z,14.20
2023-02-12T12:18:24.554Z,10.50
2023-02-12T12:20:55.777Z,10.53
2023-02-12T12:23:26.680Z,13.77
2023-02-12T12:25:57.943Z,13.10
2023-02-12T12:28:30.408Z,11.33
2023-02-12T12:31:02.695Z,12.33
2023-02-12T12:33:35.409Z,12.07
2023-02-12T12:36:26.138Z,12.67
2023-02-12T12:38:57.022Z,9.67
2023-02-12T12:41:29.280Z,10.30
2023-02-12T12:44:04.955Z,9.53
2023-02-12T12:46:41.633Z,9.57
2023-02-12T12:49:30.708Z,9.93
2023-02-12T12:52:34.496Z,8.63
2023-02-12T12:55:17.251Z,9.57
2023-02-12T12:57:50.212Z,8.77
2023-02-12T13:00:43.020Z,9.00
2023-02-12T13:03:36.240Z,8.10
2023-02-12T13:06:16.562Z,7.27
2023-02-12T13:08:55.192Z,7.60
2023-02-12T13:11:36.723Z,9.10
2023-02-12T13:14:14.129Z,7.17
2023-02-12T13:16:44.788Z,7.10
2023-02-12T13:19:16.618Z,6.53
2023-02-12T13:21:48.882Z,7.20
2023-02-12T13:24:30.251Z,6.50
2023-02-12T13:27:00.906Z,5.40
2023-02-12T13:29:31.036Z,6.20
2023-02-12T13:32:01.262Z,6.20
2023-02-12T13:34:30.848Z,5.83
2023-02-12T13:36:59.614Z,5.87
2023-02-12T13:39:31.687Z,5.17
2023-02-12T13:42:21.662Z,5.30
2023-02-12T13:44:56.389Z,5.60
2023-02-12T13:47:31.205Z,6.83
2023-02-12T13:50:01.436Z,5.77
2023-02-12T13:52:32.484Z,5.33
2023-02-12T13:55:13.098Z,5.43
2023-02-12T13:57:42.784Z,4.87
2023-02-12T14:00:52.877Z,5.53
2023-02-12T14:03:24.922Z,5.37
2023-02-12T14:06:14.601Z,5.00
2023-02-12T14:08:44.090Z,5.17
2023-02-12T14:11:13.716Z,5.97
2023-02-12T14:13:56.090Z,4.97
2023-02-12T14:16:39.825Z,4.20
2023-02-12T14:19:38.399Z,4.50
2023-02-12T14:22:12.210Z,3.70
2023-02-12T14:24:55.954Z,3.60
2023-02-12T14:27:37.989Z,3.97
2023-02-12T14:30:39.120Z,4.00
2023-02-12T14:33:27.744Z,3.97
2023-02-12T14:36:18.249Z,4.07
2023-02-12T14:39:05.126Z,3.50
2023-02-12T14:41:44.099Z,4.23
2023-02-12T14:44:46.201Z,3.53
2023-02-12T14:47:26.934Z,3.73
2023-02-12T14:49:56.059Z,3.87
2023-02-12T14:52:25.763Z,6.13
2023-02-12T14:54:55.513Z,4.70
2023-02-12T14:57:27.552Z,4.17
2023-02-12T14:59:59.478Z,5.33
2023-02-12T15:02:29.949Z,5.00
2023-02-12T15:05:01.079Z,5.07
2023-02-12T15:07:31.040Z,4.80
2023-02-12T15:10:02.920Z,5.13
2023-02-12T15:12:33.161Z,3.73
2023-02-12T15:15:05.973Z,3.63
2023-02-12T15:17:36.442Z,4.40
2023-02-12T15:20:06.952Z,3.60
2023-02-12T15:22:36.655Z,3.57
2023-02-12T15:25:18.463Z,2.97
2023-02-12T15:27:47.672Z,4.47
2023-02-12T15:30:25.904Z,4.53
2023-02-12T15:32:57.134Z,4.03
2023-02-12T15:35:26.952Z,3.57
2023-02-12T15:37:55.569Z,3.50
2023-02-12T15:40:26.913Z,3.47
2023-02-12T15:42:57.281Z,3.00
2023-02-12T15:45:29.345Z,3.10
2023-02-12T15:48:13.278Z,3.67
2023-02-12T15:50:50.595Z,3.10
2023-02-12T15:53:19.208Z,3.33
2023-02-12T15:55:48.192Z,3.10
2023-02-12T15:58:22.565Z,2.90
2023-02-12T16:00:51.057Z,3.67
2023-02-12T16:03:25.218Z,3.13
2023-02-12T16:05:54.046Z,4.20
2023-02-12T16:08:23.653Z,4.03
2023-02-12T16:10:54.048Z,4.00
2023-02-12T16:13:27.523Z,4.90
2023-02-12T16:16:06.262Z,3.97
2023-02-12T16:18:38.467Z,3.80
2023-02-12T16:21:07.710Z,4.90
2023-02-12T16:23:36.806Z,5.93
2023-02-12T16:26:05.888Z,4.90
2023-02-12T16:28:37.399Z,4.70
2023-02-12T16:31:10.665Z,5.60
2023-02-12T16:33:50.733Z,6.70
2023-02-12T16:36:30.948Z,6.93
2023-02-12T16:39:01.075Z,5.43
2023-02-12T16:41:31.165Z,4.70
2023-02-12T16:44:31.679Z,5.07
2023-02-12T16:47:02.877Z,4.67
2023-02-12T16:49:32.911Z,6.00
2023-02-12T16:52:20.020Z,5.20
2023-02-12T16:54:48.956Z,4.80
2023-02-12T16:57:17.739Z,4.93
2023-02-12T16:59:46.184Z,5.73
2023-02-12T17:02:15.722Z,5.27
2023-02-12T17:05:05.156Z,5.20
2023-02-12T17:07:36.187Z,5.10
2023-02-12T17:12:59.837Z,4.63
2023-02-12T17:15:30.401Z,5.20
2023-02-12T17:17:59.348Z,5.63
2023-02-12T17:20:29.415Z,5.67
2023-02-12T17:22:59.622Z,6.13
2023-02-12T17:25:30.217Z,6.30
2023-02-12T17:27:58.863Z,7.00
2023-02-12T17:30:29.131Z,6.80
2023-02-12T17:32:57.530Z,8.23
2023-02-12T17:35:26.181Z,10.13
2023-02-12T17:37:56.393Z,8.63
2023-02-12T17:40:25.508Z,9.97
2023-02-12T17:42:54.198Z,11.43
2023-02-12T17:45:22.639Z,9.23
2023-02-12T17:47:51.342Z,9.77
2023-02-12T17:50:20.233Z,9.17
2023-02-12T17:52:48.922Z,10.20
2023-02-12T17:55:19.289Z,8.57
2023-02-12T17:57:47.598Z,10.50
2023-02-12T18:00:17.316Z,11.27
2023-02-12T18:02:46.222Z,12.87
2023-02-12T18:05:14.752Z,14.40
2023-02-12T18:07:43.328Z,11.97
2023-02-12T18:10:12.150Z,12.33
2023-02-12T18:12:41.912Z,12.80
2023-02-12T18:15:11.329Z,11.13
2023-02-12T18:17:40.106Z,15.13
2023-02-12T18:20:10.355Z,14.13
2023-02-12T18:22:38.858Z,12.47
2023-02-12T18:25:08.168Z,9.70
2023-02-12T18:27:36.549Z,10.60
2023-02-12T18:30:09.081Z,12.73
2023-02-12T18:32:38.077Z,14.50
2023-02-12T18:35:06.939Z,14.83
2023-02-12T18:37:35.378Z,11.40
2023-02-12T18:40:03.755Z,17.47
2023-02-12T18:42:33.465Z,10.20
2023-02-12T18:45:03.842Z,19.23
2023-02-12T18:47:34.044Z,18.40
2023-02-12T18:50:02.339Z,17.60
2023-02-12T18:52:32.021Z,20.67
2023-02-12T18:55:00.576Z,21.27
2023-02-12T18:57:30.357Z,24.63
2023-02-12T18:59:58.582Z,22.10
2023-02-12T19:02:27.041Z,15.60
2023-02-12T19:04:56.928Z,14.37
2023-02-12T19:07:27.009Z,18.90
2023-02-12T19:09:55.829Z,23.17
2023-02-12T19:12:26.364Z,21.60
2023-02-12T19:14:54.770Z,13.90
2023-02-12T19:17:23.023Z,8.27
2023-02-12T19:19:51.980Z,7.50
2023-02-12T19:22:21.965Z,6.80
2023-02-12T19:24:51.543Z,8.93
2023-02-12T19:27:20.284Z,9.33
2023-02-12T19:29:49.022Z,8.47
2023-02-12T19:32:17.611Z,6.93
2023-02-12T19:34:46.903Z,7.20
2023-02-12T19:37:15.473Z,7.10
2023-02-12T19:39:45.606Z,6.30
2023-02-12T19:42:15.105Z,6.83
2023-02-12T19:44:43.583Z,6.37
2023-02-12T19:47:12.315Z,6.47
2023-02-12T19:49:41.462Z,6.43
2023-02-12T19:52:10.143Z,8.23
2023-02-12T19:54:38.429Z,9.23
2023-02-12T19:57:09.378Z,11.90
2023-02-12T19:59:37.969Z,7.70
2023-02-12T20:02:06.587Z,8.83
2023-02-12T20:04:35.119Z,12.83
2023-02-12T20:07:03.863Z,7.83
2023-02-12T20:09:32.208Z,9.03
2023-02-12T20:12:00.606Z,11.57
2023-02-12T20:14:30.242Z,8.57
2023-02-12T20:16:59.660Z,7.20
2023-02-12T20:19:30.114Z,7.50
2023-02-12T20:21:58.470Z,7.30
2023-02-12T20:24:27.814Z,9.87
2023-02-12T20:26:56.179Z,11.43
2023-02-12T20:29:24.505Z,13.43
2023-02-12T20:31:55.224Z,8.93
2023-02-12T20:34:24.123Z,8.30
2023-02-12T20:36:54.000Z,10.43
2023-02-12T20:39:22.738Z,9.23
2023-02-12T20:41:51.556Z,14.47
2023-02-12T20:44:21.570Z,15.23
2023-02-12T20:46:54.446Z,16.87
2023-02-12T20:49:27.002Z,14.73
2023-02-12T20:51:55.319Z,12.07
2023-02-12T20:54:23.968Z,7.93
2023-02-12T20:56:53.012Z,7.37
2023-02-12T20:59:21.679Z,5.90
2023-02-12T21:01:50.253Z,8.60
2023-02-12T21:04:19.599Z,6.83
2023-02-12T21:06:50.378Z,5.83
2023-02-12T21:09:18.789Z,7.17
2023-02-12T21:11:47.103Z,5.87
2023-02-12T21:14:22.499Z,6.33
2023-02-12T21:16:54.110Z,6.20
2023-02-12T21:19:22.630Z,5.93
2023-02-12T21:21:52.308Z,9.90
2023-02-12T21:24:22.003Z,6.47
2023-02-12T21:26:50.830Z,7.67
2023-02-12T21:29:19.640Z,8.03
2023-02-12T21:31:49.178Z,9.23
2023-02-12T21:34:19.665Z,10.67
2023-02-12T21:36:48.482Z,11.97
2023-02-12T21:39:25.140Z,11.50
2023-02-12T21:41:54.848Z,11.10
2023-02-12T21:44:23.446Z,12.10
2023-02-12T21:46:51.841Z,11.90
2023-02-12T21:49:24.989Z,10.00
2023-02-12T21:51:54.050Z,11.23
2023-02-12T21:54:24.299Z,11.03
2023-02-12T21:56:52.567Z,11.63
2023-02-12T21:59:21.409Z,10.33
2023-02-12T22:01:50.968Z,10.47
2023-02-12T22:04:19.628Z,10.17
2023-02-12T22:06:48.846Z,11.87
2023-02-12T22:09:18.657Z,15.97
2023-02-12T22:11:48.344Z,14.10
2023-02-12T22:14:17.606Z,21.83
2023-02-12T22:16:46.116Z,23.93
2023-02-12T22:19:14.729Z,12.30
2023-02-12T22:21:43.493Z,10.67
2023-02-12T22:24:13.951Z,8.93
2023-02-12T22:26:42.306Z,12.10
2023-02-12T22:29:13.890Z,19.23
2023-02-12T22:31:42.996Z,16.07
2023-02-12T22:34:13.948Z,20.23
2023-02-12T22:36:45.158Z,25.13
2023-02-12T22:39:13.869Z,20.60
2023-02-12T22:41:43.162Z,16.73
2023-02-12T22:44:13.239Z,23.37
2023-02-12T22:46:41.858Z,29.43
2023-02-12T22:49:10.058Z,19.73
2023-02-12T22:51:39.684Z,19.83
2023-02-12T22:54:08.149Z,14.07
2023-02-12T22:56:36.398Z,17.53
2023-02-12T22:59:04.766Z,18.83
2023-02-12T23:01:34.723Z,24.03
2023-02-12T23:04:06.546Z,15.57
2023-02-12T23:06:34.887Z,19.93
2023-02-12T23:09:04.146Z,18.43
2023-02-12T23:11:33.307Z,18.30
2023-02-12T23:14:02.021Z,22.60
2023-02-12T23:16:30.384Z,19.57
2023-02-12T23:19:01.455Z,14.33
2023-02-12T23:21:30.250Z,15.67
2023-02-12T23:23:59.183Z,12.40
2023-02-12T23:26:28.088Z,24.07
2023-02-12T23:28:57.674Z,17.10
2023-02-12T23:31:26.154Z,17.00
2023-02-12T23:33:55.162Z,16.63
2023-02-12T23:36:25.355Z,18.20
2023-02-12T23:38:53.613Z,20.77
2023-02-12T23:41:22.152Z,16.93
2023-02-12T23:43:50.730Z,17.17
2023-02-12T23:46:19.020Z,15.47
2023-02-12T23:48:47.197Z,25.93
2023-02-12T23:51:15.444Z,21.90
2023-02-12T23:53:45.120Z,17.37
2023-02-12T23:56:13.767Z,15.83
2023-02-12T23:58:42.409Z,16.67
